Time;durP1;ratioP1;P1;durP2;ratioP2;P2;SDS_P1;SDS_P2;PMS_P1;PMS_P2;Temp;Humidity;BMP_temperature;BMP_pressure;BME280_temperature;BME280_humidity;BME280_pressure;Samples;Min_cycle;Max_cycle;Signal;HPM_P1;HPM_P2
2023/04/20 00:01:37;;;;;;;;;;;;;;;15.18;76.11;100905.28;5071908;28;19973;-85
2023/04/20 00:04:03;;;;;;;;;;;;;;;15.13;76.18;100906.84;5070710;28;19908;-86
2023/04/20 00:06:30;;;;;;;;;;;;;;;15.12;76.63;100907.69;5070279;28;20344;-86
2023/04/20 00:08:55;;;;;;;;;;;;;;;15.13;76.65;100905.94;5071997;28;20317;-86
2023/04/20 00:11:20;;;;;;;;;;;;;;;15.12;76.37;100910.31;5070331;28;19923;-86
2023/04/20 00:13:46;;;;;;;;;;;;;;;15.13;76.46;100909.47;5071895;28;19908;-87
2023/04/20 00:16:11;;;;;;;;;;;;;;;15.09;76.61;100904.03;5071687;28;19994;-86
2023/04/20 00:18:37;;;;;;;;;;;;;;;15.11;76.43;100905.00;5054044;28;20385;-86
2023/04/20 00:21:03;;;;;;;;;;;;;;;15.14;76.22;100908.66;5071619;28;20003;-86
2023/04/20 00:23:28;;;;;;;;;;;;;;;15.12;76.23;100907.69;5070539;28;19944;-86
2023/04/20 00:25:54;;;;;;;;;;;;;;;15.11;76.38;100911.13;5053252;28;19908;-86
2023/04/20 00:28:22;;;;;;;;;;;;;;;15.15;76.40;100909.53;5053611;28;20346;-86
2023/04/20 00:30:47;;;;;;;;;;;;;;;15.15;75.98;100912.16;5070919;28;19908;-87
2023/04/20 00:33:13;;;;;;;;;;;;;;;15.12;76.13;100920.84;5069330;28;20049;-86
2023/04/20 00:35:38;;;;;;;;;;;;;;;15.15;75.85;100894.63;5071009;28;19913;-87
2023/04/20 00:38:04;;;;;;;;;;;;;;;15.14;75.96;100879.72;5070450;28;20431;-86
2023/04/20 00:40:29;;;;;;;;;;;;;;;15.16;75.87;100878.03;5071625;28;19921;-87
2023/04/20 00:42:55;;;;;;;;;;;;;;;15.14;75.71;100881.44;5064012;28;19992;-87
2023/04/20 00:45:21;;;;;;;;;;;;;;;15.12;76.02;100888.41;5062974;28;19922;-87
2023/04/20 00:47:46;;;;;;;;;;;;;;;15.09;76.21;100886.56;5075677;28;19956;-86
2023/04/20 00:50:12;;;;;;;;;;;;;;;15.10;76.10;100884.81;5073216;28;20373;-87
2023/04/20 00:52:37;;;;;;;;;;;;;;;15.15;75.68;100892.00;5076813;28;20476;-86
2023/04/20 00:55:03;;;;;;;;;;;;;;;15.09;76.24;100894.44;5073287;28;19914;-86
2023/04/20 00:57:28;;;;;;;;;;;;;;;15.08;76.35;100882.13;5073057;28;19991;-87
2023/04/20 00:59:54;;;;;;;;;;;;;;;15.11;76.12;100887.47;5073302;28;19947;-87
2023/04/20 01:02:19;;;;;;;;;;;;;;;15.06;76.52;100889.03;5091414;28;20600;-87
2023/04/20 01:04:45;;;;;;;;;;;;;;;15.09;75.96;100881.28;5091400;28;19948;-86
2023/04/20 01:07:11;;;;;;;;;;;;;;;15.15;75.73;100883.22;5060202;28;19912;-86
2023/04/20 01:09:37;;;;;;;;;;;;;;;15.10;76.02;100879.53;5090010;28;19915;-87
2023/04/20 01:12:03;;;;;;;;;;;;;;;15.11;75.66;100878.69;5073622;28;19956;-86
2023/04/20 01:14:28;;;;;;;;;;;;;;;15.07;76.09;100882.97;5090982;28;19912;-85
2023/04/20 01:16:54;;;;;;;;;;;;;;;15.11;75.78;100881.31;5091457;28;20064;-86
2023/04/20 01:19:20;;;;;;;;;;;;;;;15.07;75.97;100875.97;5092942;28;20373;-86
2023/04/20 01:21:46;;;;;;;;;;;;;;;15.14;75.44;100881.44;5077620;28;19908;-86
2023/04/20 01:24:12;;;;;;;;;;;;;;;15.11;75.65;100882.22;5077326;28;19964;-87
2023/04/20 01:26:37;;;;;;;;;;;;;;;15.10;75.89;100882.19;5077236;28;19908;-86
2023/04/20 01:29:03;;;;;;;;;;;;;;;15.06;76.09;100875.91;5077075;28;19908;-87
2023/04/20 01:31:28;;;;;;;;;;;;;;;15.04;75.87;100873.19;5094990;28;19919;-86
2023/04/20 01:33:53;;;;;;;;;;;;;;;15.07;75.97;100868.06;5095109;28;19908;-86
2023/04/20 01:36:19;;;;;;;;;;;;;;;15.08;76.05;100874.22;5077051;28;20507;-86
2023/04/20 01:38:44;;;;;;;;;;;;;;;15.09;75.72;100875.09;5095600;28;19920;-87
2023/04/20 01:41:10;;;;;;;;;;;;;;;15.03;76.08;100874.06;5077116;28;19919;-87
2023/04/20 01:43:36;;;;;;;;;;;;;;;15.08;75.48;100868.97;5077360;28;19951;-88
2023/04/20 01:46:01;;;;;;;;;;;;;;;15.09;75.48;100865.50;5094726;28;19912;-87
2023/04/20 01:48:26;;;;;;;;;;;;;;;15.05;75.82;100860.97;5094914;28;19958;-86
2023/04/20 01:50:52;;;;;;;;;;;;;;;15.05;75.73;100860.97;5076885;28;19908;-87
2023/04/20 01:53:17;;;;;;;;;;;;;;;15.04;75.91;100861.78;5094874;28;19908;-86
2023/04/20 01:55:43;;;;;;;;;;;;;;;15.10;75.32;100863.75;5059957;28;19908;-87
2023/04/20 01:58:08;;;;;;;;;;;;;;;15.06;75.76;100868.00;5094737;28;19919;-87
2023/04/20 02:00:33;;;;;;;;;;;;;;;15.02;75.92;100859.09;5093639;28;20309;-88
2023/04/20 02:02:59;;;;;;;;;;;;;;;15.06;75.65;100865.38;5092524;28;19968;-87
2023/04/20 02:05:25;;;;;;;;;;;;;;;15.05;75.46;100864.50;5076467;28;20343;-87
2023/04/20 02:07:50;;;;;;;;;;;;;;;15.03;75.61;100865.28;5094800;28;19908;-87
2023/04/20 02:10:16;;;;;;;;;;;;;;;15.03;75.65;100866.16;5094419;28;20069;-86
2023/04/20 02:12:41;;;;;;;;;;;;;;;15.04;75.73;100857.41;5076386;28;19911;-87
2023/04/20 02:15:08;;;;;;;;;;;;;;;15.03;75.72;100852.13;5093933;28;19915;-87
2023/04/20 02:17:35;;;;;;;;;;;;;;;15.00;75.80;100852.00;5094324;28;20012;-87
2023/04/20 02:20:00;;;;;;;;;;;;;;;15.03;75.56;100854.75;5076052;28;19912;-87
2023/04/20 02:22:25;;;;;;;;;;;;;;;14.98;75.88;100856.31;5066692;28;19943;-87
2023/04/20 02:24:51;;;;;;;;;;;;;;;15.02;75.38;100856.47;5090602;28;20404;-87
2023/04/20 02:27:16;;;;;;;;;;;;;;;14.97;75.96;100852.78;5094421;28;20423;-87
2023/04/20 02:29:42;;;;;;;;;;;;;;;14.95;75.63;100864.09;5093376;28;20427;-87
2023/04/20 02:32:07;;;;;;;;;;;;;;;14.95;76.07;100857.09;5093272;28;19962;-88
2023/04/20 02:34:32;;;;;;;;;;;;;;;14.97;75.63;100854.53;5094057;28;20343;-87
2023/04/20 02:36:58;;;;;;;;;;;;;;;14.97;75.65;100851.91;5093588;28;20381;-86
2023/04/20 02:39:23;;;;;;;;;;;;;;;14.96;75.69;100853.59;5075808;28;20365;-87
2023/04/20 02:41:49;;;;;;;;;;;;;;;14.95;75.78;100851.81;5075687;28;20362;-86
2023/04/20 02:44:14;;;;;;;;;;;;;;;14.96;75.94;100852.72;5093548;28;19969;-87
2023/04/20 02:46:40;;;;;;;;;;;;;;;14.97;75.71;100855.41;5075856;28;19958;-86
2023/04/20 02:49:06;;;;;;;;;;;;;;;14.96;75.51;100853.59;5093460;28;19927;-87
2023/04/20 02:51:31;;;;;;;;;;;;;;;14.95;75.72;100857.09;5093946;28;19964;-87
2023/04/20 02:53:56;;;;;;;;;;;;;;;14.97;75.20;100855.41;5093488;28;20343;-87
2023/04/20 02:56:22;;;;;;;;;;;;;;;14.93;75.50;100855.25;5075612;28;19908;-87
2023/04/20 02:58:47;;;;;;;;;;;;;;;14.94;75.72;100851.75;5079998;28;19908;-86
2023/04/20 03:01:13;;;;;;;;;;;;;;;14.94;75.59;100847.38;5075316;28;20351;-86
2023/04/20 03:03:38;;;;;;;;;;;;;;;14.93;75.61;100848.25;5093522;28;20435;-87
2023/04/20 03:06:04;;;;;;;;;;;;;;;14.92;75.55;100845.53;5093368;28;19908;-87
2023/04/20 03:08:29;;;;;;;;;;;;;;;14.93;75.70;100853.50;5075514;28;19969;-87
2023/04/20 03:10:55;;;;;;;;;;;;;;;14.88;75.70;100855.06;5093388;28;19912;-87
2023/04/20 03:13:20;;;;;;;;;;;;;;;14.92;75.61;100854.34;5092890;28;19912;-87
2023/04/20 03:15:46;;;;;;;;;;;;;;;14.89;75.65;100856.84;5081413;28;19908;-86
2023/04/20 03:18:11;;;;;;;;;;;;;;;14.89;75.94;100862.13;5078271;28;19916;-87
2023/04/20 03:20:36;;;;;;;;;;;;;;;14.88;75.78;100855.06;5093457;28;20415;-88
2023/04/20 03:23:02;;;;;;;;;;;;;;;14.91;75.66;100849.91;5074809;28;19951;-87
2023/04/20 03:25:28;;;;;;;;;;;;;;;14.89;75.88;100853.34;5075156;28;19943;-87
2023/04/20 03:27:53;;;;;;;;;;;;;;;14.86;75.66;100857.63;5093372;28;19911;-87
2023/04/20 03:30:19;;;;;;;;;;;;;;;14.89;75.75;100861.22;5092951;28;20057;-87
2023/04/20 03:32:44;;;;;;;;;;;;;;;14.83;75.61;100860.13;5074914;28;19914;-88
2023/04/20 03:35:10;;;;;;;;;;;;;;;14.84;75.73;100861.06;5075072;28;19908;-88
2023/04/20 03:37:38;;;;;;;;;;;;;;;14.84;76.01;100859.31;5074557;28;20452;-87
2023/04/20 03:40:05;;;;;;;;;;;;;;;14.87;75.71;100855.91;5086735;28;19951;-87
2023/04/20 03:42:34;;;;;;;;;;;;;;;14.85;75.48;100860.19;5062571;28;19912;-86
2023/04/20 03:44:59;;;;;;;;;;;;;;;14.85;75.52;100854.94;5059486;28;19998;-87
2023/04/20 03:47:25;;;;;;;;;;;;;;;14.83;75.78;100860.13;5072898;28;20057;-87
2023/04/20 03:49:50;;;;;;;;;;;;;;;14.85;75.74;100865.47;5091644;28;19918;-87
2023/04/20 03:52:16;;;;;;;;;;;;;;;14.88;75.52;100849.81;5056849;28;19919;-87
2023/04/20 03:54:41;;;;;;;;;;;;;;;14.86;75.55;100860.28;5073553;28;20006;-88
2023/04/20 03:57:06;;;;;;;;;;;;;;;14.86;75.55;100849.75;5079834;28;19977;-87
2023/04/20 03:59:32;;;;;;;;;;;;;;;14.82;75.88;100861.00;5092984;28;20399;-87
2023/04/20 04:01:57;;;;;;;;;;;;;;;14.82;75.90;100857.47;5089034;28;19912;-87
2023/04/20 04:04:23;;;;;;;;;;;;;;;14.82;75.67;100857.47;5090830;28;20002;-86
2023/04/20 04:06:48;;;;;;;;;;;;;;;14.82;75.77;100870.63;5070803;28;19989;-85
2023/04/20 04:09:14;;;;;;;;;;;;;;;14.82;75.63;100868.88;5076378;28;19919;-85
2023/04/20 04:11:39;;;;;;;;;;;;;;;14.84;75.42;100864.56;5084652;28;20397;-85
2023/04/20 04:14:05;;;;;;;;;;;;;;;14.83;75.50;100869.75;5092047;28;19908;-86
2023/04/20 04:16:30;;;;;;;;;;;;;;;14.82;75.72;100863.63;5074435;28;19943;-85
2023/04/20 04:18:56;;;;;;;;;;;;;;;14.82;75.59;100868.00;5055130;28;19911;-85
2023/04/20 04:21:21;;;;;;;;;;;;;;;14.82;75.76;100868.00;5061861;28;19917;-85
2023/04/20 04:23:47;;;;;;;;;;;;;;;14.78;75.74;100869.59;5085529;28;19916;-85
2023/04/20 04:26:12;;;;;;;;;;;;;;;14.79;75.66;100865.22;5076649;28;19978;-85
2023/04/20 04:28:39;;;;;;;;;;;;;;;14.79;75.75;100876.63;5089425;28;19911;-86
2023/04/20 04:31:04;;;;;;;;;;;;;;;14.81;75.68;100879.31;5060446;28;20354;-87
2023/04/20 04:33:32;;;;;;;;;;;;;;;14.81;75.59;100884.59;5083992;28;19916;-85
2023/04/20 04:35:57;;;;;;;;;;;;;;;14.80;75.66;100885.44;5087368;28;19951;-84
2023/04/20 04:38:23;;;;;;;;;;;;;;;14.80;75.69;100883.69;5093001;28;20008;-86
2023/04/20 04:40:48;;;;;;;;;;;;;;;14.78;75.77;100876.59;5064040;28;20394;-86
2023/04/20 04:43:14;;;;;;;;;;;;;;;14.80;75.71;100888.94;5077012;28;19919;-85
2023/04/20 04:45:40;;;;;;;;;;;;;;;14.80;75.83;100885.44;5090269;28;20581;-87
2023/04/20 04:48:06;;;;;;;;;;;;;;;14.77;75.50;100882.66;5094936;28;20003;-87
2023/04/20 04:50:32;;;;;;;;;;;;;;;14.76;75.79;100884.41;5070984;28;19935;-88
2023/04/20 04:52:58;;;;;;;;;;;;;;;14.77;75.85;100890.56;5080368;28;19918;-88
2023/04/20 04:55:23;;;;;;;;;;;;;;;14.80;75.68;100888.06;5093704;28;20359;-87
2023/04/20 04:57:49;;;;;;;;;;;;;;;14.81;75.37;100895.97;5095150;28;19916;-87
2023/04/20 05:02:51;;;;;;;;;;;;;;;14.77;75.82;100890.56;5492616;22;19920;-85
2023/04/20 05:07:49;;;;;;;;;;;;;;;14.75;75.77;100895.78;5058937;28;19920;-85
2023/04/20 05:10:14;;;;;;;;;;;;;;;14.78;75.59;100895.00;5064350;28;19924;-86
2023/04/20 05:12:40;;;;;;;;;;;;;;;14.78;75.58;100898.50;5057365;28;20448;-86
2023/04/20 05:15:05;;;;;;;;;;;;;;;14.78;75.38;100900.25;5050186;28;19916;-86
2023/04/20 05:17:32;;;;;;;;;;;;;;;14.76;75.44;100888.78;5069314;28;19924;-86
2023/04/20 05:19:57;;;;;;;;;;;;;;;14.74;75.87;100901.84;5068280;28;19981;-86
2023/04/20 05:22:23;;;;;;;;;;;;;;;14.77;75.75;100901.06;5065665;28;20373;-86
2023/04/20 05:24:49;;;;;;;;;;;;;;;14.78;75.92;100897.63;5066823;28;19924;-87
2023/04/20 05:27:14;;;;;;;;;;;;;;;14.80;75.75;100898.59;5069107;28;19939;-87
2023/04/20 05:29:39;;;;;;;;;;;;;;;14.81;75.52;100902.97;5033715;28;20341;-86
2023/04/20 05:32:05;;;;;;;;;;;;;;;14.76;75.70;100894.94;5067832;28;20374;-87
2023/04/20 05:34:31;;;;;;;;;;;;;;;14.78;75.73;100892.38;5067772;28;20295;-87
2023/04/20 05:36:57;;;;;;;;;;;;;;;14.75;75.86;100895.78;5051469;28;19916;-87
2023/04/20 05:39:22;;;;;;;;;;;;;;;14.73;76.10;100899.16;5069154;28;19956;-88
2023/04/20 05:41:49;;;;;;;;;;;;;;;14.79;75.60;100894.13;5064798;28;19923;-87
2023/04/20 05:44:15;;;;;;;;;;;;;;;14.75;75.93;100894.84;5057084;28;20023;-89
2023/04/20 05:46:40;;;;;;;;;;;;;;;14.77;75.94;100894.06;5069024;28;19928;-89
2023/04/20 05:49:06;;;;;;;;;;;;;;;14.77;75.95;100893.19;5052711;28;19916;-88
2023/04/20 05:51:32;;;;;;;;;;;;;;;14.72;76.13;100892.13;5051383;28;20551;-88
2023/04/20 05:53:59;;;;;;;;;;;;;;;14.77;76.13;100894.06;5066975;28;19924;-87
2023/04/20 05:56:24;;;;;;;;;;;;;;;14.77;75.89;100895.81;5050765;28;20011;-88
2023/04/20 05:58:51;;;;;;;;;;;;;;;14.80;75.90;100895.94;5042859;28;19966;-86
2023/04/20 06:01:17;;;;;;;;;;;;;;;14.77;76.15;100890.56;5064665;28;19955;-86
2023/04/20 06:03:42;;;;;;;;;;;;;;;14.76;76.03;100894.94;5047009;28;19917;-86
2023/04/20 06:06:08;;;;;;;;;;;;;;;14.78;76.16;100901.13;5071035;28;19970;-87
2023/04/20 06:08:33;;;;;;;;;;;;;;;14.77;76.12;100896.69;5071827;28;19916;-88
2023/04/20 06:10:59;;;;;;;;;;;;;;;14.72;76.44;100907.91;5071272;28;20504;-89
2023/04/20 06:13:24;;;;;;;;;;;;;;;14.69;76.55;100898.16;5053302;28;19917;-88
2023/04/20 06:15:51;;;;;;;;;;;;;;;14.63;76.22;100906.69;5054672;28;20297;-89
2023/04/20 06:18:18;;;;;;;;;;;;;;;14.63;76.73;100898.81;5036462;28;19921;-88
2023/04/20 06:20:43;;;;;;;;;;;;;;;14.68;76.56;100898.97;5068944;28;19974;-89
2023/04/20 06:23:09;;;;;;;;;;;;;;;14.65;76.72;100897.13;5034429;28;20472;-89
2023/04/20 06:25:35;;;;;;;;;;;;;;;14.70;76.38;100901.69;5052078;28;20686;-89
2023/04/20 06:28:02;;;;;;;;;;;;;;;14.65;76.57;100891.88;5035799;28;20454;-87
2023/04/20 06:30:28;;;;;;;;;;;;;;;14.72;76.48;100902.63;5052505;28;20412;-86
2023/04/20 06:32:54;;;;;;;;;;;;;;;14.67;76.54;100910.34;5067626;28;19921;-88
2023/04/20 06:35:20;;;;;;;;;;;;;;;14.66;76.39;100912.06;5034461;28;20122;-87
2023/04/20 06:37:53;;;;;;;;;;;;;;;14.66;76.72;100909.44;5049094;28;20440;-87
2023/04/20 06:40:18;;;;;;;;;;;;;;;14.65;76.53;100906.75;5048083;28;19923;-87
2023/04/20 06:42:45;;;;;;;;;;;;;;;14.68;76.88;100905.97;5036031;28;19916;-87
2023/04/20 06:45:10;;;;;;;;;;;;;;;14.66;76.83;100908.53;5066931;28;20366;-87
2023/04/20 06:47:36;;;;;;;;;;;;;;;14.66;76.85;100903.28;5049952;28;19924;-87
2023/04/20 06:50:03;;;;;;;;;;;;;;;14.68;76.70;100909.50;5071088;28;19920;-87
2023/04/20 06:52:30;;;;;;;;;;;;;;;14.66;76.73;100906.78;5066866;28;19916;-87
2023/04/20 06:54:56;;;;;;;;;;;;;;;14.65;76.70;100910.28;5052671;28;19920;-88
2023/04/20 06:57:22;;;;;;;;;;;;;;;14.66;77.02;100913.78;5050948;28;19920;-86
2023/04/20 06:59:47;;;;;;;;;;;;;;;14.65;77.01;100915.53;5070925;28;20604;-86
2023/04/20 07:02:13;;;;;;;;;;;;;;;14.65;76.65;100917.28;5070282;28;20412;-87
2023/04/20 07:04:38;;;;;;;;;;;;;;;14.66;76.75;100919.94;5070893;28;19916;-85
2023/04/20 07:07:06;;;;;;;;;;;;;;;14.68;76.61;100924.38;5052952;28;19923;-90
2023/04/20 07:09:31;;;;;;;;;;;;;;;14.65;76.77;100927.78;5047111;28;19994;-87
2023/04/20 07:11:57;;;;;;;;;;;;;;;14.65;76.76;100928.69;5053278;28;20283;-88
2023/04/20 07:14:23;;;;;;;;;;;;;;;14.65;77.06;100928.69;5048805;28;19924;-89
2023/04/20 07:16:53;;;;;;;;;;;;;;;14.68;76.90;100932.25;5036329;28;19927;-86
2023/04/20 07:19:20;;;;;;;;;;;;;;;14.67;76.77;100928.75;5055146;28;20404;-91
2023/04/20 07:21:46;;;;;;;;;;;;;;;14.66;76.76;100927.81;5036352;28;19916;-89
2023/04/20 07:24:12;;;;;;;;;;;;;;;14.70;76.65;100931.47;5071166;28;19943;-92
2023/04/20 07:26:38;;;;;;;;;;;;;;;14.70;76.76;100934.09;5054574;28;19920;-88
2023/04/20 07:29:03;;;;;;;;;;;;;;;14.68;76.88;100940.16;5070568;28;19916;-86
2023/04/20 07:31:31;;;;;;;;;;;;;;;14.70;76.68;100938.47;5054019;28;20279;-91
2023/04/20 07:33:57;;;;;;;;;;;;;;;14.70;76.52;100939.38;5035033;28;19916;-87
2023/04/20 07:36:22;;;;;;;;;;;;;;;14.69;76.79;100945.47;5049739;28;19922;-89
2023/04/20 07:38:48;;;;;;;;;;;;;;;14.69;76.78;100945.47;5065737;28;20309;-88
2023/04/20 07:41:14;;;;;;;;;;;;;;;14.73;76.69;100944.75;5050425;28;20400;-88
2023/04/20 07:43:39;;;;;;;;;;;;;;;14.72;76.53;100945.59;5052485;28;19921;-88
2023/04/20 07:46:05;;;;;;;;;;;;;;;14.71;76.70;100945.50;5048680;28;20406;-89
2023/04/20 07:48:42;;;;;;;;;;;;;;;14.74;76.39;100943.91;5051614;28;20393;-86
2023/04/20 07:51:07;;;;;;;;;;;;;;;14.83;75.71;100936.38;5034582;28;20477;-85
2023/04/20 07:53:34;;;;;;;;;;;;;;;14.90;75.21;100934.91;5065750;28;19994;-85
2023/04/20 07:55:59;;;;;;;;;;;;;;;14.90;75.18;100931.38;5054625;28;20016;-84
2023/04/20 07:58:30;;;;;;;;;;;;;;;14.92;75.24;100933.25;5053718;28;20010;-84
2023/04/20 08:00:56;;;;;;;;;;;;;;;14.87;75.23;100921.63;5070924;28;19917;-84
2023/04/20 08:03:21;;;;;;;;;;;;;;;14.83;75.43;100923.22;5068636;28;19939;-84
2023/04/20 08:05:46;;;;;;;;;;;;;;;14.84;75.73;100921.53;5068289;28;19912;-87
2023/04/20 08:08:12;;;;;;;;;;;;;;;14.88;75.48;100925.16;5051790;28;20317;-84
2023/04/20 08:10:37;;;;;;;;;;;;;;;14.88;75.67;100928.69;5071259;28;19969;-85
2023/04/20 08:13:03;;;;;;;;;;;;;;;14.88;75.90;100923.44;5069241;28;21521;-85
2023/04/20 08:15:28;;;;;;;;;;;;;;;14.89;75.97;100924.31;5070334;28;20386;-84
2023/04/20 08:17:54;;;;;;;;;;;;;;;14.91;76.08;100914.75;5052494;28;20013;-86
2023/04/20 08:20:19;;;;;;;;;;;;;;;14.92;76.10;100917.47;5068006;28;19917;-87
2023/04/20 08:22:48;;;;;;;;;;;;;;;15.01;75.83;100922.19;5049722;28;20389;-86
2023/04/20 08:25:13;;;;;;;;;;;;;;;14.96;76.40;100910.56;5078352;28;19916;-86
2023/04/20 08:27:39;;;;;;;;;;;;;;;14.94;76.38;100913.13;5066754;28;19916;-87
2023/04/20 08:30:05;;;;;;;;;;;;;;;14.95;76.33;100914.94;5072391;28;19952;-85
2023/04/20 08:32:30;;;;;;;;;;;;;;;14.98;76.03;100922.94;5062321;28;19920;-85
2023/04/20 08:34:56;;;;;;;;;;;;;;;14.98;76.05;100914.16;5047829;28;19917;-87
2023/04/20 08:37:22;;;;;;;;;;;;;;;14.95;76.42;100920.19;5063596;28;19927;-86
2023/04/20 08:39:47;;;;;;;;;;;;;;;15.04;75.55;100915.28;5065880;28;20413;-86
2023/04/20 08:42:13;;;;;;;;;;;;;;;15.04;75.45;100922.28;5047927;28;19924;-85
2023/04/20 08:44:38;;;;;;;;;;;;;;;15.13;75.06;100925.25;5047079;28;19944;-86
2023/04/20 08:47:03;;;;;;;;;;;;;;;15.13;75.70;100924.38;5067522;28;19981;-85
2023/04/20 08:49:32;;;;;;;;;;;;;;;15.06;76.19;100920.59;5052354;28;19920;-86
2023/04/20 08:51:57;;;;;;;;;;;;;;;15.02;76.26;100926.59;5068772;28;19973;-87
2023/04/20 08:54:23;;;;;;;;;;;;;;;15.05;76.76;100930.25;5070686;28;19920;-86
2023/04/20 08:56:48;;;;;;;;;;;;;;;15.02;76.54;100926.59;5068589;28;19970;-86
2023/04/20 08:59:15;;;;;;;;;;;;;;;15.05;77.28;100929.34;5068597;28;19947;-86
2023/04/20 09:01:40;;;;;;;;;;;;;;;15.09;76.93;100925.06;5051750;28;20423;-87
2023/04/20 09:04:19;;;;;;;;;;;;;;;15.11;76.50;100928.66;5052280;28;20039;-86
2023/04/20 09:06:45;;;;;;;;;;;;;;;15.10;77.56;100930.41;5061544;28;19916;-87
2023/04/20 09:09:11;;;;;;;;;;;;;;;15.12;77.49;100920.84;5043997;28;19920;-87
2023/04/20 09:11:37;;;;;;;;;;;;;;;15.13;77.76;100922.63;5046217;28;19916;-86
2023/04/20 09:14:05;;;;;;;;;;;;;;;15.11;78.13;100918.16;5049241;28;19924;-86
2023/04/20 09:16:31;;;;;;;;;;;;;;;15.10;77.82;100919.00;5060103;28;19920;-87
2023/04/20 09:18:56;;;;;;;;;;;;;;;15.30;77.02;100917.09;5047758;28;19917;-87
2023/04/20 09:21:23;;;;;;;;;;;;;;;15.36;76.96;100915.59;5062679;28;19990;-87
2023/04/20 09:23:58;;;;;;;;;;;;;;;15.32;77.02;100915.41;5047298;28;19916;-86
2023/04/20 09:26:23;;;;;;;;;;;;;;;15.35;77.11;100911.19;5048150;28;19924;-86
2023/04/20 09:28:49;;;;;;;;;;;;;;;15.35;77.43;100907.66;5049061;28;20302;-86
2023/04/20 09:31:18;;;;;;;;;;;;;;;15.41;77.37;100911.41;5047079;28;19917;-86
2023/04/20 09:33:44;;;;;;;;;;;;;;;15.41;77.15;100911.41;5044370;28;19920;-88
2023/04/20 09:36:10;;;;;;;;;;;;;;;15.41;77.00;100905.25;5044057;28;20378;-86
2023/04/20 09:38:36;;;;;;;;;;;;;;;15.40;77.21;100904.34;5040434;28;19927;-85
2023/04/20 09:41:01;;;;;;;;;;;;;;;15.42;77.71;100904.41;5045116;28;20019;-87
2023/04/20 09:43:27;;;;;;;;;;;;;;;15.47;77.09;100906.38;5049799;28;19917;-87
2023/04/20 09:45:53;;;;;;;;;;;;;;;15.45;76.93;100902.78;5047100;28;19932;-87
2023/04/20 09:48:19;;;;;;;;;;;;;;;15.48;77.50;100902.88;5030063;28;19974;-83
2023/04/20 09:50:45;;;;;;;;;;;;;;;15.47;76.92;100910.72;5047347;28;19924;-83
2023/04/20 09:53:10;;;;;;;;;;;;;;;15.50;76.87;100902.06;5053966;28;19921;-87
2023/04/20 09:55:36;;;;;;;;;;;;;;;15.51;76.95;100906.47;5044577;28;20382;-87
2023/04/20 09:58:02;;;;;;;;;;;;;;;15.47;76.00;100898.47;5050139;28;19921;-86
2023/04/20 10:00:29;;;;;;;;;;;;;;;15.51;76.59;100898.56;5040448;28;20310;-86
2023/04/20 10:02:54;;;;;;;;;;;;;;;15.56;76.77;100887.38;5042266;28;19924;-88
2023/04/20 10:05:30;;;;;;;;;;;;;;;15.50;76.75;100897.69;5065228;28;19917;-84
2023/04/20 10:08:02;;;;;;;;;;;;;;;15.57;76.77;100897.06;5049126;28;19974;-88
2023/04/20 10:10:30;;;;;;;;;;;;;;;15.55;76.37;100900.47;5049305;28;19917;-88
2023/04/20 10:12:58;;;;;;;;;;;;;;;15.60;76.25;100896.25;5045625;28;20001;-86
2023/04/20 10:15:26;;;;;;;;;;;;;;;15.60;77.00;100894.53;5051503;28;19939;-86
2023/04/20 10:17:52;;;;;;;;;;;;;;;15.60;77.06;100888.34;5032403;28;20447;-85
2023/04/20 10:20:29;;;;;;;;;;;;;;;15.61;76.74;100887.53;5072973;28;20420;-86
2023/04/20 10:23:06;;;;;;;;;;;;;;;15.59;76.11;100891.84;5044892;28;20441;-85
2023/04/20 10:25:31;;;;;;;;;;;;;;;15.52;75.74;100893.38;5018040;28;19924;-85
2023/04/20 10:27:59;;;;;;;;;;;;;;;15.53;75.27;100889.88;5050271;28;19916;-85
2023/04/20 10:30:25;;;;;;;;;;;;;;;15.50;75.36;100889.78;5047357;28;19916;-86
2023/04/20 10:33:07;;;;;;;;;;;;;;;15.55;75.11;100893.47;5033043;28;20007;-84
2023/04/20 10:35:45;;;;;;;;;;;;;;;15.59;74.37;100895.38;5046550;28;19948;-84
2023/04/20 10:38:12;;;;;;;;;;;;;;;15.54;73.93;100896.97;5030738;28;19927;-88
2023/04/20 10:40:38;;;;;;;;;;;;;;;15.57;74.56;100902.31;5063820;28;19916;-87
2023/04/20 10:43:16;;;;;;;;;;;;;;;15.57;74.83;100907.56;5031095;28;20319;-86
2023/04/20 10:45:42;;;;;;;;;;;;;;;15.57;73.31;100907.56;5027352;28;20625;-87
2023/04/20 10:48:08;;;;;;;;;;;;;;;15.55;73.80;100903.09;5049185;28;20535;-88
2023/04/20 10:50:35;;;;;;;;;;;;;;;15.60;74.38;100906.78;5049357;28;19917;-85
2023/04/20 10:53:01;;;;;;;;;;;;;;;15.60;74.14;100902.44;5049161;28;20415;-87
2023/04/20 10:55:27;;;;;;;;;;;;;;;15.60;73.14;100899.81;5063725;28;20015;-86
2023/04/20 10:57:53;;;;;;;;;;;;;;;15.64;73.99;100901.72;5042863;28;19912;-86
2023/04/20 11:00:19;;;;;;;;;;;;;;;15.68;74.28;100903.63;5053095;28;19924;-88
2023/04/20 11:02:49;;;;;;;;;;;;;;;15.72;73.65;100896.72;5035143;28;19913;-87
2023/04/20 11:05:15;;;;;;;;;;;;;;;15.79;73.82;100900.47;5061783;28;19919;-87
2023/04/20 11:07:49;;;;;;;;;;;;;;;15.77;72.92;100903.06;5064576;28;19924;-86
2023/04/20 11:10:15;;;;;;;;;;;;;;;15.75;73.63;100917.91;5045000;28;19923;-86
2023/04/20 11:12:40;;;;;;;;;;;;;;;15.81;74.07;100917.22;5070375;28;19916;-86
2023/04/20 11:15:06;;;;;;;;;;;;;;;15.72;74.20;100911.63;5073078;28;20393;-86
2023/04/20 11:17:35;;;;;;;;;;;;;;;15.81;72.90;100910.25;5071332;28;20003;-88
2023/04/20 11:20:11;;;;;;;;;;;;;;;15.82;73.83;100911.13;5071883;28;19944;-88
2023/04/20 11:22:40;;;;;;;;;;;;;;;15.87;73.23;100905.19;5059003;28;20406;-87
2023/04/20 11:25:06;;;;;;;;;;;;;;;15.84;73.83;100912.97;5071675;28;19927;-87
2023/04/20 11:27:32;;;;;;;;;;;;;;;15.82;73.93;100909.38;5051390;28;19924;-87
2023/04/20 11:29:58;;;;;;;;;;;;;;;15.84;73.91;100912.97;5067065;28;19943;-86
2023/04/20 11:32:24;;;;;;;;;;;;;;;15.78;73.92;100915.38;5071474;28;19913;-87
2023/04/20 11:34:57;;;;;;;;;;;;;;;15.87;73.91;100913.09;5071456;28;19935;-87
2023/04/20 11:37:22;;;;;;;;;;;;;;;15.85;73.38;100912.13;5054724;28;20407;-87
2023/04/20 11:39:57;;;;;;;;;;;;;;;15.79;73.85;100918.91;5071475;28;19994;-87
2023/04/20 11:42:23;;;;;;;;;;;;;;;15.88;73.22;100908.72;5072559;28;20003;-85
2023/04/20 11:44:48;;;;;;;;;;;;;;;15.94;73.24;100908.94;5066586;28;19979;-87
2023/04/20 11:47:13;;;;;;;;;;;;;;;15.91;73.65;100918.44;5037756;28;20532;-87
2023/04/20 11:49:39;;;;;;;;;;;;;;;15.91;74.25;100902.66;5072414;28;20436;-88
2023/04/20 11:52:04;;;;;;;;;;;;;;;15.87;74.07;100901.63;5070923;28;19912;-86
2023/04/20 11:54:32;;;;;;;;;;;;;;;15.86;74.32;100898.13;5066191;28;19916;-88
2023/04/20 11:56:58;;;;;;;;;;;;;;;15.85;73.54;100892.78;5072124;28;19916;-87
2023/04/20 11:59:25;;;;;;;;;;;;;;;15.82;73.31;100887.44;5051833;28;19977;-89
2023/04/20 12:01:51;;;;;;;;;;;;;;;15.93;73.00;100899.22;5071370;28;19924;-89
2023/04/20 12:04:16;;;;;;;;;;;;;;;15.88;73.11;100896.44;5072239;28;19962;-88
2023/04/20 12:06:42;;;;;;;;;;;;;;;15.83;73.46;100899.72;5067322;28;19927;-89
2023/04/20 12:09:08;;;;;;;;;;;;;;;15.87;73.74;100894.66;5067673;28;20349;-89
2023/04/20 12:11:33;;;;;;;;;;;;;;;15.86;73.63;100890.22;5050704;28;20397;-89
2023/04/20 12:13:59;;;;;;;;;;;;;;;15.88;73.80;100898.19;5040896;28;19913;-89
2023/04/20 12:16:24;;;;;;;;;;;;;;;15.84;72.88;100894.53;5049252;28;19909;-89
2023/04/20 12:18:51;;;;;;;;;;;;;;;15.82;73.57;100885.69;5034357;28;20011;-89
2023/04/20 12:21:18;;;;;;;;;;;;;;;15.88;73.46;100904.31;5049887;28;19923;-90
2023/04/20 12:23:44;;;;;;;;;;;;;;;15.92;73.42;100901.78;5067831;28;19939;-89
2023/04/20 12:26:15;;;;;;;;;;;;;;;15.87;73.12;100901.63;5067681;28;20298;-89
2023/04/20 12:28:41;;;;;;;;;;;;;;;15.84;72.72;100896.28;5034013;28;19932;-88
2023/04/20 12:31:06;;;;;;;;;;;;;;;15.86;73.07;100884.94;5050378;28;19912;-88
2023/04/20 12:33:33;;;;;;;;;;;;;;;15.90;72.94;100890.34;5067103;28;19917;-88
2023/04/20 12:35:59;;;;;;;;;;;;;;;15.87;72.72;100886.75;5066034;28;19916;-88